Terminal Aerodrome Forecast
Issued by NWS

Home | Current Version | Previous Version | Text Only | Print | Product List | Glossary On
Versions: 1 2 3 4 5 6 7 8 9 10 11 12 13 14 15 16 17 18 19 20 21 22 23 24 25 26 27 28 29 30 31 32 33 34
000
FTUS41 KBOX 311737
TAFBAF
TAF
KBAF 311737Z 3118/0118 22010KT P6SM VCTS FEW040CB BKN060
     FM312200 20007KT P6SM SCT050 SCT250
     FM010300 VRB03KT P6SM SCT250
     FM010900 00000KT 2SM BR SCT250
     FM011200 00000KT P6SM SCT250
     FM011600 18005KT P6SM BKN050=

USA.gov is the U.S. government's official web portal to all federal, state and local government web resources and services.